Terminal Aerodrome Forecast
Issued by NWS Quad Cities IA IL

Home | Current Version | Previous Version | Text Only | Print | Product List | Glossary On
Versions: 1 2 3 4 5 6 7 8 9 10 11 12 13 14 15 16 17 18 19 20 21
000
FTUS43 KDVN 241300 AAA
TAFMLI
TAF AMD
KMLI 241330Z 2414/2512 33006KT P6SM OVC012
      TEMPO 2414/2416 1/2SM FG VV003
     FM241600 31014KT 6SM BR VCSH OVC015
     FM242200 31012KT P6SM BKN025=

USA.gov is the U.S. government's official web portal to all federal, state and local government web resources and services.